Time;durP1;ratioP1;P1;durP2;ratioP2;P2;SDS_P1;SDS_P2;PMS_P1;PMS_P2;Temp;Humidity;BMP_temperature;BMP_pressure;BME280_temperature;BME280_humidity;BME280_pressure;Samples;Min_cycle;Max_cycle;Signal;HPM_P1;HPM_P2
2023/10/24 00:01:39;;;;;;;;;;;;;;;11.79;87.35;100649.09;4193434;28;20023;-68
2023/10/24 00:03:43;;;;;;;;;;;;;;;11.78;87.46;100650.13;4193213;28;20023;-69
2023/10/24 00:05:47;;;;;;;;;;;;;;;11.77;87.40;100648.44;4194526;28;20011;-68
2023/10/24 00:07:50;;;;;;;;;;;;;;;11.77;87.12;100651.13;4194616;28;20047;-66
2023/10/24 00:09:52;;;;;;;;;;;;;;;11.77;87.11;100651.13;4194460;28;20446;-69
2023/10/24 00:11:54;;;;;;;;;;;;;;;11.77;87.30;100643.03;4194141;28;20011;-68
2023/10/24 00:13:55;;;;;;;;;;;;;;;11.75;87.13;100648.63;4195355;28;20077;-69
2023/10/24 00:15:58;;;;;;;;;;;;;;;11.75;87.47;100643.19;4194313;28;20024;-66
2023/10/24 00:18:01;;;;;;;;;;;;;;;11.75;87.22;100628.84;4194976;28;19928;-66
2023/10/24 00:20:04;;;;;;;;;;;;;;;11.74;87.33;100636.13;4207399;28;20015;-69
2023/10/24 00:22:06;;;;;;;;;;;;;;;11.75;87.18;100626.97;4193400;28;20008;-67
2023/10/24 00:24:08;;;;;;;;;;;;;;;11.76;87.54;100625.94;4193686;28;19995;-69
2023/10/24 00:26:11;;;;;;;;;;;;;;;11.76;87.48;100617.84;4195612;28;20027;-68
2023/10/24 00:28:16;;;;;;;;;;;;;;;11.77;87.32;100624.06;4192813;28;20092;-67
2023/10/24 00:30:18;;;;;;;;;;;;;;;11.77;87.33;100616.81;4191492;28;19974;-68
2023/10/24 00:32:21;;;;;;;;;;;;;;;11.75;87.27;100610.75;4192692;28;20012;-69
2023/10/24 00:34:25;;;;;;;;;;;;;;;11.75;87.39;100602.63;4192246;28;20394;-68
2023/10/24 00:36:27;;;;;;;;;;;;;;;11.74;87.03;100603.66;4194348;28;20015;-68
2023/10/24 00:38:29;;;;;;;;;;;;;;;11.74;87.44;100590.13;4195166;28;19928;-68
2023/10/24 00:40:32;;;;;;;;;;;;;;;11.75;87.34;100593.66;4194052;28;20015;-69
2023/10/24 00:42:34;;;;;;;;;;;;;;;11.75;87.61;100590.97;4195340;28;20011;-68
2023/10/24 00:44:37;;;;;;;;;;;;;;;11.76;87.59;100579.97;4210470;28;20022;-69
2023/10/24 00:46:40;;;;;;;;;;;;;;;11.76;87.24;100573.72;4194683;28;20011;-68
2023/10/24 00:48:41;;;;;;;;;;;;;;;11.75;87.58;100566.63;4194751;28;20019;-69
2023/10/24 00:50:44;;;;;;;;;;;;;;;11.73;87.65;100570.34;4194589;28;19950;-69
2023/10/24 00:52:46;;;;;;;;;;;;;;;11.76;87.76;100561.00;4185946;28;20362;-69
2023/10/24 00:54:50;;;;;;;;;;;;;;;11.75;87.84;100556.63;4194009;28;20024;-69
2023/10/24 00:56:52;;;;;;;;;;;;;;;11.74;87.81;100552.25;4194960;28;20019;-69
2023/10/24 00:58:54;;;;;;;;;;;;;;;11.74;87.89;100552.25;4193640;28;19958;-68
2023/10/24 01:00:55;;;;;;;;;;;;;;;11.73;87.88;100553.28;4192962;28;20019;-69
2023/10/24 01:02:59;;;;;;;;;;;;;;;11.72;88.00;100549.75;4193186;28;20048;-69
2023/10/24 01:05:01;;;;;;;;;;;;;;;11.72;88.00;100546.19;4193848;28;20046;-68
2023/10/24 01:07:04;;;;;;;;;;;;;;;11.75;88.10;100545.81;4194057;28;20019;-68
2023/10/24 01:09:06;;;;;;;;;;;;;;;11.75;88.10;100547.69;4194165;28;20399;-67
2023/10/24 01:11:08;;;;;;;;;;;;;;;11.75;88.44;100553.91;4192915;28;20365;-68
2023/10/24 01:13:10;;;;;;;;;;;;;;;11.76;88.56;100549.38;4194636;28;20024;-68
2023/10/24 01:15:14;;;;;;;;;;;;;;;11.76;88.58;100542.06;4192955;28;20019;-69
2023/10/24 01:17:17;;;;;;;;;;;;;;;11.77;88.50;100538.34;4192361;28;20356;-68
2023/10/24 01:19:19;;;;;;;;;;;;;;;11.78;88.47;100545.41;4192071;28;20020;-69
2023/10/24 01:21:21;;;;;;;;;;;;;;;11.81;88.44;100538.81;4193676;28;20490;-68
2023/10/24 01:23:24;;;;;;;;;;;;;;;11.81;88.44;100538.81;4193409;28;20442;-68
2023/10/24 01:25:26;;;;;;;;;;;;;;;11.82;88.29;100535.09;4193204;28;20475;-67
2023/10/24 01:27:29;;;;;;;;;;;;;;;11.82;88.66;100527.78;4193237;28;20011;-68
2023/10/24 01:29:31;;;;;;;;;;;;;;;11.83;88.60;100529.47;4192375;28;20019;-69
2023/10/24 01:31:33;;;;;;;;;;;;;;;11.82;88.79;100530.50;4191099;28;20023;-69
2023/10/24 01:33:35;;;;;;;;;;;;;;;11.83;88.74;100525.91;4193149;28;20378;-69
2023/10/24 01:35:36;;;;;;;;;;;;;;;11.82;88.93;100525.09;4194092;28;20470;-68
2023/10/24 01:37:39;;;;;;;;;;;;;;;11.85;88.90;100518.47;4191649;28;20023;-67
2023/10/24 01:39:43;;;;;;;;;;;;;;;11.86;88.89;100498.47;4192293;28;20453;-68
2023/10/24 01:41:44;;;;;;;;;;;;;;;11.88;88.99;100494.56;4193562;28;20798;-68
2023/10/24 01:43:47;;;;;;;;;;;;;;;11.89;89.06;100488.09;4194131;28;20007;-68
2023/10/24 01:45:49;;;;;;;;;;;;;;;11.90;89.05;100487.06;4193500;28;20030;-68
2023/10/24 01:47:50;;;;;;;;;;;;;;;11.90;88.73;100492.50;4192117;28;20024;-67
2023/10/24 01:49:52;;;;;;;;;;;;;;;11.90;89.16;100505.19;4194117;28;20015;-66
2023/10/24 01:51:54;;;;;;;;;;;;;;;11.91;88.87;100498.72;4193985;28;20035;-69
2023/10/24 01:53:56;;;;;;;;;;;;;;;11.90;88.79;100499.78;4184895;28;20085;-68
2023/10/24 01:55:59;;;;;;;;;;;;;;;11.90;88.79;100497.91;4209652;28;20018;-69
2023/10/24 01:58:01;;;;;;;;;;;;;;;11.90;89.29;100502.47;4195844;28;20019;-67
2023/10/24 02:00:03;;;;;;;;;;;;;;;11.91;89.19;100501.44;4195845;28;19978;-67
2023/10/24 02:02:14;;;;;;;;;;;;;;;11.90;89.14;100507.91;4195992;28;20027;-69
2023/10/24 02:04:15;;;;;;;;;;;;;;;11.91;88.95;100501.44;4196605;28;20377;-68
2023/10/24 02:06:17;;;;;;;;;;;;;;;11.90;89.31;100489.78;4197040;28;20303;-68
2023/10/24 02:08:18;;;;;;;;;;;;;;;11.92;88.86;100483.34;4198415;28;20019;-67
2023/10/24 02:10:20;;;;;;;;;;;;;;;11.92;89.32;100486.91;4197418;28;19935;-68
2023/10/24 02:12:24;;;;;;;;;;;;;;;11.94;89.04;100481.31;4197489;28;20018;-68
2023/10/24 02:14:29;;;;;;;;;;;;;;;11.92;89.02;100478.78;4196552;28;20039;-69
2023/10/24 02:16:32;;;;;;;;;;;;;;;11.94;89.01;100484.03;4195570;28;20402;-69
2023/10/24 02:18:34;;;;;;;;;;;;;;;11.94;89.19;100492.13;4196494;28;20016;-68
2023/10/24 02:20:36;;;;;;;;;;;;;;;11.95;88.85;100483.81;4196429;28;19963;-68
2023/10/24 02:22:38;;;;;;;;;;;;;;;11.95;88.61;100478.41;4195795;28;20015;-68
2023/10/24 02:24:40;;;;;;;;;;;;;;;11.96;88.67;100473.81;4195621;28;20015;-67
2023/10/24 02:26:42;;;;;;;;;;;;;;;11.95;88.86;100478.41;4195036;28;20015;-68
2023/10/24 02:28:45;;;;;;;;;;;;;;;11.96;88.74;100481.94;4203043;28;20015;-68
2023/10/24 02:30:47;;;;;;;;;;;;;;;11.96;89.03;100487.34;4195685;28;20498;-68
2023/10/24 02:32:49;;;;;;;;;;;;;;;11.95;88.90;100472.19;4194245;28;20027;-68
2023/10/24 02:34:51;;;;;;;;;;;;;;;11.96;88.93;100476.53;4195706;28;20050;-67
2023/10/24 02:36:53;;;;;;;;;;;;;;;11.96;89.07;100474.69;4196748;28;20011;-68
2023/10/24 02:38:55;;;;;;;;;;;;;;;11.98;88.75;100479.91;4196189;28;20024;-69
2023/10/24 02:40:57;;;;;;;;;;;;;;;11.96;88.88;100473.81;4195796;28;19932;-69
2023/10/24 02:42:59;;;;;;;;;;;;;;;11.98;88.67;100479.91;4195814;28;20509;-68
2023/10/24 02:45:02;;;;;;;;;;;;;;;11.99;88.51;100484.28;4195360;28;20027;-68
2023/10/24 02:47:04;;;;;;;;;;;;;;;12.00;88.44;100485.97;4195384;28;20019;-68
2023/10/24 02:49:05;;;;;;;;;;;;;;;11.99;88.66;100487.84;4194829;28;20024;-69
2023/10/24 02:51:07;;;;;;;;;;;;;;;12.00;88.51;100503.03;4194579;28;20579;-69
2023/10/24 02:53:09;;;;;;;;;;;;;;;12.00;88.64;100492.19;4196273;28;20020;-68
2023/10/24 02:55:11;;;;;;;;;;;;;;;12.01;88.83;100493.88;4179381;28;20031;-68
2023/10/24 02:57:12;;;;;;;;;;;;;;;12.02;88.78;100494.72;4179256;28;20011;-68
2023/10/24 02:59:16;;;;;;;;;;;;;;;12.02;88.75;100494.72;4194997;28;19924;-68
2023/10/24 03:01:19;;;;;;;;;;;;;;;12.01;88.57;100493.88;4178187;28;20011;-69
2023/10/24 03:03:23;;;;;;;;;;;;;;;12.02;88.54;100482.03;4177965;28;20020;-68
2023/10/24 03:05:24;;;;;;;;;;;;;;;12.02;88.52;100489.31;4179741;28;20023;-66
2023/10/24 03:07:26;;;;;;;;;;;;;;;12.01;88.61;100480.34;4179483;28;20023;-67
2023/10/24 03:09:28;;;;;;;;;;;;;;;12.01;88.92;100487.66;4178468;28;20011;-68
2023/10/24 03:11:30;;;;;;;;;;;;;;;12.01;88.77;100479.53;4176932;28;20478;-66
2023/10/24 03:13:32;;;;;;;;;;;;;;;12.00;88.88;100478.66;4178889;28;20021;-68
2023/10/24 03:15:35;;;;;;;;;;;;;;;12.01;89.20;100480.34;4179034;28;20500;-68
2023/10/24 03:17:38;;;;;;;;;;;;;;;12.01;88.84;100480.34;4178834;28;20019;-68
2023/10/24 03:19:41;;;;;;;;;;;;;;;12.01;88.89;100479.53;4179032;28;20023;-69
2023/10/24 03:21:43;;;;;;;;;;;;;;;12.01;88.81;100483.06;4177399;28;19925;-69
2023/10/24 03:23:45;;;;;;;;;;;;;;;12.02;88.84;100481.19;4176982;28;20004;-68
2023/10/24 03:25:47;;;;;;;;;;;;;;;12.01;88.94;100477.66;4177651;28;20021;-69
2023/10/24 03:27:51;;;;;;;;;;;;;;;12.02;88.83;100481.19;4178316;28;20011;-68
2023/10/24 03:29:53;;;;;;;;;;;;;;;12.02;88.50;100470.34;4174044;28;20035;-68
2023/10/24 03:31:54;;;;;;;;;;;;;;;12.03;88.73;100472.03;4175783;28;20846;-67
2023/10/24 03:33:57;;;;;;;;;;;;;;;12.02;88.68;100459.53;4176453;28;20391;-68
2023/10/24 03:36:00;;;;;;;;;;;;;;;12.00;88.96;100465.13;4175098;28;20023;-68
2023/10/24 03:38:02;;;;;;;;;;;;;;;12.01;88.98;100456.00;4177228;28;20012;-68
2023/10/24 03:40:05;;;;;;;;;;;;;;;12.00;88.97;100456.19;4176718;28;20035;-67
2023/10/24 03:42:11;;;;;;;;;;;;;;;12.03;88.96;100453.09;4175370;28;20015;-68
2023/10/24 03:44:13;;;;;;;;;;;;;;;12.01;88.70;100450.56;4176090;28;20047;-69
2023/10/24 03:46:15;;;;;;;;;;;;;;;12.01;88.81;100449.75;4178866;28;20028;-69
2023/10/24 03:48:17;;;;;;;;;;;;;;;12.01;88.96;100452.47;4177683;28;20020;-68
2023/10/24 03:50:20;;;;;;;;;;;;;;;12.01;88.94;100447.88;4176273;28;20060;-67
2023/10/24 03:52:23;;;;;;;;;;;;;;;12.02;89.00;100446.84;4177372;28;20027;-68
2023/10/24 03:54:23;;;;;;;;;;;;;;;12.04;88.96;100449.38;4187587;28;20019;-68
2023/10/24 03:56:26;;;;;;;;;;;;;;;12.03;88.87;100445.81;4195652;28;19936;-68
2023/10/24 03:58:29;;;;;;;;;;;;;;;12.03;88.70;100442.25;4194879;28;20015;-66
2023/10/24 04:00:30;;;;;;;;;;;;;;;12.03;88.49;100443.09;4193006;28;20019;-68
2023/10/24 04:02:32;;;;;;;;;;;;;;;12.03;88.45;100437.69;4192694;28;19932;-68
2023/10/24 04:04:34;;;;;;;;;;;;;;;12.04;88.54;100425.00;4195281;28;20453;-68
2023/10/24 04:06:37;;;;;;;;;;;;;;;12.03;88.85;100413.31;4194617;28;20011;-68
2023/10/24 04:08:39;;;;;;;;;;;;;;;12.03;88.91;100418.72;4192760;28;20027;-68
2023/10/24 04:10:41;;;;;;;;;;;;;;;12.04;88.85;100422.28;4192906;28;20027;-67
2023/10/24 04:12:43;;;;;;;;;;;;;;;12.04;88.75;100422.28;4194056;28;20007;-68
2023/10/24 04:14:46;;;;;;;;;;;;;;;12.02;89.03;100419.78;4193882;28;20034;-68
2023/10/24 04:16:47;;;;;;;;;;;;;;;12.03;88.96;100417.91;4193251;28;20024;-68
2023/10/24 04:18:49;;;;;;;;;;;;;;;12.02;88.88;100418.94;4195087;28;20022;-68
2023/10/24 04:20:51;;;;;;;;;;;;;;;12.03;89.08;100409.78;4193260;28;20031;-68
2023/10/24 04:22:54;;;;;;;;;;;;;;;12.03;89.09;100412.50;4194009;28;20339;-68
2023/10/24 04:24:55;;;;;;;;;;;;;;;12.02;89.17;100402.69;4193825;28;20045;-69
2023/10/24 04:26:57;;;;;;;;;;;;;;;12.02;89.12;100403.53;4191967;28;19972;-68
2023/10/24 04:28:59;;;;;;;;;;;;;;;12.02;89.02;100391.84;4193650;28;20024;-68
2023/10/24 04:31:00;;;;;;;;;;;;;;;12.02;88.86;100381.03;4191957;28;20012;-68
2023/10/24 04:33:02;;;;;;;;;;;;;;;12.03;89.10;100371.88;4193988;28;20030;-68
2023/10/24 04:35:05;;;;;;;;;;;;;;;12.02;89.26;100365.66;4193803;28;20062;-69
2023/10/24 04:37:07;;;;;;;;;;;;;;;12.03;89.32;100366.47;4194767;28;20442;-67
2023/10/24 04:39:10;;;;;;;;;;;;;;;12.01;89.23;100369.38;4194030;28;20477;-68
2023/10/24 04:41:12;;;;;;;;;;;;;;;12.03;89.46;100371.88;4195057;28;20019;-69
2023/10/24 04:43:15;;;;;;;;;;;;;;;12.03;89.32;100367.31;4193998;28;20439;-69
2023/10/24 04:45:17;;;;;;;;;;;;;;;12.02;89.35;100365.66;4195470;28;20330;-69
2023/10/24 04:47:19;;;;;;;;;;;;;;;12.02;89.28;100359.38;4195177;28;20015;-69
2023/10/24 04:49:21;;;;;;;;;;;;;;;12.03;89.18;100372.72;4194793;28;20446;-69
2023/10/24 04:51:23;;;;;;;;;;;;;;;12.02;89.28;100379.19;4193544;28;20043;-69
2023/10/24 04:53:25;;;;;;;;;;;;;;;12.02;89.35;100386.44;4194912;28;20394;-70
2023/10/24 04:55:28;;;;;;;;;;;;;;;12.01;89.40;100388.31;4186636;28;19959;-69
2023/10/24 04:57:46;;;;;;;;;;;;;;;12.02;89.17;100394.56;4170994;28;20637;-67
2023/10/24 04:59:48;;;;;;;;;;;;;;;12.02;89.30;100397.28;4194593;28;20016;-67
2023/10/24 05:01:50;;;;;;;;;;;;;;;12.03;89.45;100388.13;4192424;28;20027;-68
2023/10/24 05:03:52;;;;;;;;;;;;;;;12.03;89.27;100382.72;4194236;28;19928;-70
2023/10/24 05:05:55;;;;;;;;;;;;;;;12.03;89.42;100380.84;4189717;28;20039;-69
2023/10/24 05:07:57;;;;;;;;;;;;;;;12.03;89.58;100374.59;4190280;28;20016;-69
2023/10/24 05:09:59;;;;;;;;;;;;;;;12.02;89.58;100372.91;4190411;28;20454;-69
2023/10/24 05:12:03;;;;;;;;;;;;;;;12.01;89.41;100363.13;4193523;28;20023;-69
2023/10/24 05:14:04;;;;;;;;;;;;;;;12.01;89.87;100361.25;4192567;28;20023;-68
2023/10/24 05:16:06;;;;;;;;;;;;;;;12.01;89.62;100365.84;4193038;28;20051;-70
2023/10/24 05:18:11;;;;;;;;;;;;;;;12.02;89.39;100370.19;4192404;28;20023;-69
2023/10/24 05:20:16;;;;;;;;;;;;;;;12.01;89.64;100369.38;4192631;28;20023;-68
2023/10/24 05:22:18;;;;;;;;;;;;;;;12.01;89.62;100368.56;4192965;28;20018;-69
2023/10/24 05:24:20;;;;;;;;;;;;;;;12.01;89.59;100374.78;4193538;28;20642;-67
2023/10/24 05:26:22;;;;;;;;;;;;;;;12.01;89.57;100368.56;4193550;28;19955;-69
2023/10/24 05:28:25;;;;;;;;;;;;;;;12.00;89.60;100370.41;4191961;28;20011;-69
2023/10/24 05:30:27;;;;;;;;;;;;;;;12.01;89.63;100363.13;4191990;28;20049;-67
2023/10/24 05:32:29;;;;;;;;;;;;;;;11.95;89.67;100345.81;4189947;28;20796;-66
2023/10/24 05:34:31;;;;;;;;;;;;;;;11.99;89.70;100340.81;4193134;28;20016;-70
2023/10/24 05:36:33;;;;;;;;;;;;;;;11.98;90.01;100350.81;4194024;28;20027;-67
2023/10/24 05:38:36;;;;;;;;;;;;;;;11.99;90.12;100351.66;4193912;28;20059;-68
2023/10/24 05:40:39;;;;;;;;;;;;;;;11.98;89.86;100344.59;4186085;28;20015;-70
2023/10/24 05:42:41;;;;;;;;;;;;;;;11.98;89.92;100333.75;4193035;28;20032;-70
2023/10/24 05:44:45;;;;;;;;;;;;;;;11.95;90.20;100344.97;4189927;28;19935;-69
2023/10/24 05:46:47;;;;;;;;;;;;;;;11.94;90.29;100356.81;4193769;28;20015;-70
2023/10/24 05:48:49;;;;;;;;;;;;;;;11.94;90.42;100360.34;4193326;28;19999;-69
2023/10/24 05:50:51;;;;;;;;;;;;;;;11.93;90.66;100355.13;4192333;28;20031;-69
2023/10/24 05:52:53;;;;;;;;;;;;;;;11.93;90.83;100347.03;4192403;28;20466;-69
2023/10/24 05:54:55;;;;;;;;;;;;;;;11.93;90.40;100347.88;4193092;28;20015;-69
2023/10/24 05:56:57;;;;;;;;;;;;;;;11.94;90.61;100343.28;4192951;28;20040;-70
2023/10/24 05:58:59;;;;;;;;;;;;;;;11.93;90.50;100345.16;4191285;28;20369;-70
2023/10/24 06:01:02;;;;;;;;;;;;;;;11.93;90.77;100344.31;4192102;28;20039;-68
2023/10/24 06:03:04;;;;;;;;;;;;;;;11.92;90.77;100343.47;4192760;28;20023;-69
2023/10/24 06:05:07;;;;;;;;;;;;;;;11.92;90.96;100350.75;4192891;28;19982;-68
2023/10/24 06:07:09;;;;;;;;;;;;;;;11.91;90.99;100336.34;4192628;28;20860;-69
2023/10/24 06:09:12;;;;;;;;;;;;;;;11.91;90.69;100336.34;4193497;28;20027;-68
2023/10/24 06:11:16;;;;;;;;;;;;;;;11.92;90.78;100326.38;4190936;28;20019;-69
2023/10/24 06:13:16;;;;;;;;;;;;;;;11.92;90.67;100315.56;4192379;28;20824;-69
2023/10/24 06:15:19;;;;;;;;;;;;;;;11.92;90.87;100296.63;4193162;28;19928;-70
2023/10/24 06:17:23;;;;;;;;;;;;;;;11.92;90.52;100300.19;4192647;28;20015;-69
2023/10/24 06:19:24;;;;;;;;;;;;;;;11.93;90.43;100303.72;4192984;28;20020;-67
2023/10/24 06:21:26;;;;;;;;;;;;;;;11.93;90.29;100301.88;4193709;28;20391;-69
2023/10/24 06:23:28;;;;;;;;;;;;;;;11.92;90.47;100294.78;4192330;28;20019;-69
2023/10/24 06:25:30;;;;;;;;;;;;;;;11.93;90.18;100284.78;4192227;28;19928;-68
2023/10/24 06:27:32;;;;;;;;;;;;;;;11.93;90.38;100280.22;4193020;28;20003;-68
2023/10/24 06:29:33;;;;;;;;;;;;;;;11.92;90.31;100277.69;4193135;28;20019;-69
2023/10/24 06:31:36;;;;;;;;;;;;;;;11.90;90.41;100265.16;4191291;28;20020;-69
2023/10/24 06:33:40;;;;;;;;;;;;;;;11.90;90.46;100270.59;4193446;28;20011;-70
2023/10/24 06:35:42;;;;;;;;;;;;;;;11.93;90.52;100268.53;4194141;28;20028;-69
2023/10/24 06:37:44;;;;;;;;;;;;;;;11.92;90.25;100265.00;4194161;28;20454;-70
2023/10/24 06:39:45;;;;;;;;;;;;;;;11.92;90.30;100266.84;4193401;28;20032;-70
2023/10/24 06:41:47;;;;;;;;;;;;;;;11.93;89.91;100261.28;4193894;28;20025;-68
2023/10/24 06:43:57;;;;;;;;;;;;;;;11.92;89.95;100237.94;4195434;28;20015;-69
2023/10/24 06:45:59;;;;;;;;;;;;;;;11.94;89.94;100243.16;4187934;28;20443;-70
2023/10/24 06:48:01;;;;;;;;;;;;;;;11.94;90.06;100251.28;4196947;28;20023;-69
2023/10/24 06:50:05;;;;;;;;;;;;;;;11.93;89.94;100253.16;4196703;28;20462;-69
2023/10/24 06:52:07;;;;;;;;;;;;;;;11.90;90.54;100251.63;4197066;28;20020;-70
2023/10/24 06:54:09;;;;;;;;;;;;;;;11.91;90.27;100260.59;4196553;28;20114;-69
2023/10/24 06:56:11;;;;;;;;;;;;;;;11.90;90.35;100259.75;4196120;28;20367;-69
2023/10/24 06:58:13;;;;;;;;;;;;;;;11.92;90.26;100261.44;4196095;28;20018;-69
2023/10/24 07:00:15;;;;;;;;;;;;;;;11.93;89.91;100260.41;4195585;28;20031;-69
2023/10/24 07:02:17;;;;;;;;;;;;;;;11.92;89.82;100259.59;4194599;28;19960;-69
2023/10/24 07:04:19;;;;;;;;;;;;;;;11.92;89.78;100262.31;4195919;28;20027;-69
2023/10/24 07:06:23;;;;;;;;;;;;;;;11.93;89.59;100255.88;4196961;28;19950;-69
2023/10/24 07:08:25;;;;;;;;;;;;;;;11.94;89.89;100262.09;4196864;28;20019;-69
2023/10/24 07:10:27;;;;;;;;;;;;;;;11.94;90.04;100265.63;4195819;28;20360;-69
2023/10/24 07:12:29;;;;;;;;;;;;;;;11.94;89.64;100262.09;4196457;28;20020;-69
2023/10/24 07:14:30;;;;;;;;;;;;;;;11.94;89.77;100260.22;4197357;28;20453;-70
2023/10/24 07:16:33;;;;;;;;;;;;;;;11.94;90.03;100252.09;4195818;28;20007;-67
2023/10/24 07:18:35;;;;;;;;;;;;;;;11.93;90.52;100242.34;4196203;28;20015;-68
2023/10/24 07:20:37;;;;;;;;;;;;;;;11.94;90.36;100254.81;4195891;28;20019;-68
2023/10/24 07:22:42;;;;;;;;;;;;;;;11.94;90.47;100246.69;4196262;28;20438;-69
2023/10/24 07:24:43;;;;;;;;;;;;;;;11.94;90.28;100243.97;4196164;28;20015;-69
2023/10/24 07:26:45;;;;;;;;;;;;;;;11.95;90.03;100242.13;4195807;28;20002;-69
2023/10/24 07:28:46;;;;;;;;;;;;;;;11.96;90.29;100241.94;4196435;28;20003;-69
2023/10/24 07:30:51;;;;;;;;;;;;;;;11.96;90.42;100238.38;4196048;28;20052;-70
2023/10/24 07:32:54;;;;;;;;;;;;;;;11.96;90.38;100235.66;4195158;28;20552;-69
2023/10/24 07:34:56;;;;;;;;;;;;;;;11.97;90.52;100226.53;4195578;28;20022;-69
2023/10/24 07:36:58;;;;;;;;;;;;;;;11.97;90.43;100230.06;4196217;28;20023;-69
2023/10/24 07:39:02;;;;;;;;;;;;;;;11.98;90.54;100231.75;4196194;28;20027;-69
2023/10/24 07:41:04;;;;;;;;;;;;;;;11.98;90.37;100236.31;4195987;28;20023;-69
2023/10/24 07:43:07;;;;;;;;;;;;;;;11.98;90.17;100241.75;4196042;28;20027;-68
2023/10/24 07:45:11;;;;;;;;;;;;;;;11.98;89.96;100245.28;4196207;28;20036;-70
2023/10/24 07:47:13;;;;;;;;;;;;;;;11.99;90.10;100237.97;4195640;28;19951;-70
2023/10/24 07:49:15;;;;;;;;;;;;;;;11.99;90.11;100240.69;4194405;28;20032;-69
2023/10/24 07:51:17;;;;;;;;;;;;;;;12.00;90.17;100242.38;4195662;28;20023;-68
2023/10/24 07:53:20;;;;;;;;;;;;;;;12.00;90.34;100239.66;4195734;28;20016;-70
2023/10/24 07:55:23;;;;;;;;;;;;;;;12.01;90.17;100252.16;4195466;28;20032;-69
2023/10/24 07:57:25;;;;;;;;;;;;;;;12.01;90.04;100241.34;4196115;28;20036;-70
2023/10/24 07:59:26;;;;;;;;;;;;;;;12.00;90.22;100242.38;4195230;28;20493;-69
2023/10/24 08:01:28;;;;;;;;;;;;;;;12.01;90.35;100233.22;4194700;28;19932;-69
2023/10/24 08:03:30;;;;;;;;;;;;;;;12.01;90.15;100235.94;4195796;28;20462;-69
2023/10/24 08:05:32;;;;;;;;;;;;;;;12.01;89.89;100239.47;4194913;28;20122;-67
2023/10/24 08:07:34;;;;;;;;;;;;;;;12.02;89.96;100232.16;4194037;28;19931;-69
2023/10/24 08:09:36;;;;;;;;;;;;;;;12.03;89.99;100239.25;4195352;28;20027;-69
2023/10/24 08:11:40;;;;;;;;;;;;;;;12.02;90.00;100240.28;4195223;28;20035;-69
2023/10/24 08:13:42;;;;;;;;;;;;;;;12.02;90.30;100233.03;4195338;28;20007;-70
2023/10/24 08:15:44;;;;;;;;;;;;;;;12.02;90.05;100232.16;4194752;28;20019;-69
2023/10/24 08:17:46;;;;;;;;;;;;;;;12.01;90.29;100223.22;4196011;28;20023;-69
2023/10/24 08:19:47;;;;;;;;;;;;;;;12.01;90.52;100220.50;4195281;28;20363;-69
2023/10/24 08:21:49;;;;;;;;;;;;;;;12.02;90.38;100221.34;4195314;28;19925;-69
2023/10/24 08:23:51;;;;;;;;;;;;;;;12.01;90.57;100225.94;4194209;28;20015;-69
2023/10/24 08:25:53;;;;;;;;;;;;;;;12.02;90.37;100235.72;4195224;28;20450;-69
2023/10/24 08:27:56;;;;;;;;;;;;;;;12.02;90.56;100237.59;4194919;28;19974;-69
2023/10/24 08:29:59;;;;;;;;;;;;;;;12.01;90.64;100236.75;4194292;28;20553;-69
2023/10/24 08:32:01;;;;;;;;;;;;;;;12.04;90.46;100241.78;4193488;28;21583;-69
2023/10/24 08:34:03;;;;;;;;;;;;;;;12.04;90.42;100227.41;4195037;28;20011;-69
2023/10/24 08:36:05;;;;;;;;;;;;;;;12.05;90.34;100224.50;4195385;28;20510;-69
2023/10/24 08:38:07;;;;;;;;;;;;;;;12.06;90.79;100225.34;4194500;28;20446;-69
2023/10/24 08:40:09;;;;;;;;;;;;;;;12.06;90.65;100222.63;4194594;28;20019;-69
2023/10/24 08:42:11;;;;;;;;;;;;;;;12.06;90.43;100218.03;4190213;28;20015;-69
2023/10/24 08:44:14;;;;;;;;;;;;;;;12.07;90.29;100222.44;4195081;28;20438;-70
2023/10/24 08:46:16;;;;;;;;;;;;;;;12.07;90.48;100225.13;4194160;28;20019;-69
2023/10/24 08:48:18;;;;;;;;;;;;;;;12.08;90.60;100223.25;4194761;28;19932;-69
2023/10/24 08:50:19;;;;;;;;;;;;;;;12.09;90.72;100222.22;4195180;28;20023;-69
2023/10/24 08:52:22;;;;;;;;;;;;;;;12.09;90.64;100216.81;4194712;28;20367;-69
2023/10/24 08:54:24;;;;;;;;;;;;;;;12.11;90.57;100208.50;4193878;28;20003;-69
2023/10/24 08:56:27;;;;;;;;;;;;;;;12.12;90.82;100199.34;4194827;28;20039;-69
2023/10/24 08:58:31;;;;;;;;;;;;;;;12.13;90.87;100192.88;4195366;28;20016;-69
2023/10/24 09:00:33;;;;;;;;;;;;;;;12.12;90.89;100189.34;4193869;28;20357;-69
2023/10/24 09:02:36;;;;;;;;;;;;;;;12.15;90.75;100182.72;4193948;28;20474;-69
2023/10/24 09:04:38;;;;;;;;;;;;;;;12.15;90.92;100185.41;4194968;28;20048;-69
2023/10/24 09:06:40;;;;;;;;;;;;;;;12.15;90.66;100182.72;4194532;28;20015;-69
2023/10/24 09:08:42;;;;;;;;;;;;;;;12.16;90.91;100181.66;4194922;28;20386;-69
2023/10/24 09:10:44;;;;;;;;;;;;;;;12.16;90.92;100178.94;4194110;28;20023;-69
2023/10/24 09:12:46;;;;;;;;;;;;;;;12.17;90.60;100173.31;4193368;28;20381;-69
2023/10/24 09:14:49;;;;;;;;;;;;;;;12.18;90.69;100177.72;4195123;28;20020;-69
2023/10/24 09:16:55;;;;;;;;;;;;;;;12.19;90.37;100178.53;4195412;28;20026;-69
2023/10/24 09:18:57;;;;;;;;;;;;;;;12.20;90.31;100177.50;4194123;28;20371;-69
2023/10/24 09:20:58;;;;;;;;;;;;;;;12.21;90.58;100173.75;4194792;28;20029;-69
2023/10/24 09:23:04;;;;;;;;;;;;;;;12.21;90.93;100166.50;4194661;28;19995;-67
2023/10/24 09:25:08;;;;;;;;;;;;;;;12.22;90.68;100180.84;4194549;28;20027;-69
2023/10/24 09:27:10;;;;;;;;;;;;;;;12.22;90.38;100188.97;4194802;28;20023;-69
2023/10/24 09:29:12;;;;;;;;;;;;;;;12.23;90.23;100185.25;4195658;28;19936;-69
2023/10/24 09:31:14;;;;;;;;;;;;;;;12.23;90.55;100183.34;4194478;28;20024;-70
2023/10/24 09:33:17;;;;;;;;;;;;;;;12.24;90.17;100185.03;4193845;28;20011;-69
2023/10/24 09:35:20;;;;;;;;;;;;;;;12.24;90.41;100185.03;4194573;28;19959;-69
2023/10/24 09:37:22;;;;;;;;;;;;;;;12.24;90.51;100182.34;4194588;28;20626;-70
2023/10/24 09:39:24;;;;;;;;;;;;;;;12.27;90.46;100178.38;4194793;28;20015;-68
2023/10/24 09:41:26;;;;;;;;;;;;;;;12.26;90.61;100174.84;4193574;28;20530;-70
2023/10/24 09:43:29;;;;;;;;;;;;;;;12.26;90.50;100169.41;4194209;28;20019;-69
2023/10/24 09:45:31;;;;;;;;;;;;;;;12.28;90.64;100177.34;4194171;28;20394;-68
2023/10/24 09:47:33;;;;;;;;;;;;;;;12.29;90.86;100176.31;4194272;28;20023;-70
2023/10/24 09:49:37;;;;;;;;;;;;;;;12.29;90.79;100175.44;4193379;28;19929;-69
2023/10/24 09:51:38;;;;;;;;;;;;;;;12.31;90.73;100173.41;4194265;28;20035;-69
2023/10/24 09:53:41;;;;;;;;;;;;;;;12.32;90.22;100175.06;4194870;28;20011;-70
2023/10/24 09:55:48;;;;;;;;;;;;;;;12.33;90.26;100168.59;4185870;28;20007;-70
2023/10/24 09:57:50;;;;;;;;;;;;;;;12.34;90.29;100167.59;4192337;28;20441;-70
2023/10/24 09:59:54;;;;;;;;;;;;;;;12.34;90.21;100167.59;4194212;28;20039;-70
2023/10/24 10:01:56;;;;;;;;;;;;;;;12.35;89.82;100171.94;4193406;28;20027;-70
2023/10/24 10:04:00;;;;;;;;;;;;;;;12.36;90.05;100158.19;4193343;28;20027;-70
2023/10/24 10:06:03;;;;;;;;;;;;;;;12.36;89.79;100160.91;4194323;28;20023;-69
2023/10/24 10:08:05;;;;;;;;;;;;;;;12.37;89.74;100159.06;4194593;28;20031;-70
2023/10/24 10:10:07;;;;;;;;;;;;;;;12.37;89.74;100151.75;4188640;28;19925;-70
2023/10/24 10:12:10;;;;;;;;;;;;;;;12.37;89.63;100140.09;4168820;28;20639;-69
2023/10/24 10:14:14;;;;;;;;;;;;;;;12.39;89.58;100138.00;4193927;28;20015;-69
2023/10/24 10:16:20;;;;;;;;;;;;;;;12.40;89.25;100142.41;4193453;28;20023;-69
2023/10/24 10:18:24;;;;;;;;;;;;;;;12.40;89.28;100134.28;4194340;28;20067;-69
2023/10/24 10:20:31;;;;;;;;;;;;;;;12.41;89.40;100131.38;4195563;28;20462;-70
2023/10/24 10:22:41;;;;;;;;;;;;;;;12.40;89.25;100124.25;4197075;28;20657;-69
2023/10/24 10:24:47;;;;;;;;;;;;;;;12.41;89.34;100128.66;4197527;28;20497;-70
2023/10/24 10:26:59;;;;;;;;;;;;;;;12.43;89.18;100128.44;4196057;28;20022;-70
2023/10/24 10:29:03;;;;;;;;;;;;;;;12.42;89.43;100127.59;4196713;28;20343;-69